sensor_id;sensor_type;location;lat;lon;timestamp;temperature;humidity
4461;DHT22;2243;48.812;9.232;2023-05-15T00:01:04;11.40;99.90
4461;DHT22;2243;48.812;9.232;2023-05-15T00:03:35;11.50;99.90
4461;DHT22;2243;48.812;9.232;2023-05-15T00:06:06;11.40;99.90
4461;DHT22;2243;48.812;9.232;2023-05-15T00:08:37;11.40;99.90
4461;DHT22;2243;48.812;9.232;2023-05-15T00:11:08;11.40;99.90
4461;DHT22;2243;48.812;9.232;2023-05-15T00:13:39;11.30;99.90
4461;DHT22;2243;48.812;9.232;2023-05-15T00:16:10;11.30;99.90
4461;DHT22;2243;48.812;9.232;2023-05-15T00:18:41;11.30;99.90
4461;DHT22;2243;48.812;9.232;2023-05-15T00:21:12;11.30;99.90
4461;DHT22;2243;48.812;9.232;2023-05-15T00:23:43;11.40;99.90
4461;DHT22;2243;48.812;9.232;2023-05-15T00:26:14;11.40;99.90
4461;DHT22;2243;48.812;9.232;2023-05-15T00:28:45;11.50;99.90
4461;DHT22;2243;48.812;9.232;2023-05-15T00:31:16;11.50;99.90
4461;DHT22;2243;48.812;9.232;2023-05-15T00:33:47;11.60;99.90
4461;DHT22;2243;48.812;9.232;2023-05-15T00:36:18;11.60;99.90
4461;DHT22;2243;48.812;9.232;2023-05-15T00:38:51;11.70;99.90
4461;DHT22;2243;48.812;9.232;2023-05-15T00:41:23;11.70;99.90
4461;DHT22;2243;48.812;9.232;2023-05-15T00:43:56;11.70;99.90
4461;DHT22;2243;48.812;9.232;2023-05-15T00:46:30;11.70;99.90
4461;DHT22;2243;48.812;9.232;2023-05-15T00:49:03;11.70;99.90
4461;DHT22;2243;48.812;9.232;2023-05-15T00:51:36;11.70;99.90
4461;DHT22;2243;48.812;9.232;2023-05-15T00:54:07;11.70;99.90
4461;DHT22;2243;48.812;9.232;2023-05-15T00:56:39;11.80;99.90
4461;DHT22;2243;48.812;9.232;2023-05-15T00:59:12;11.70;99.90
4461;DHT22;2243;48.812;9.232;2023-05-15T01:01:43;11.80;99.90
4461;DHT22;2243;48.812;9.232;2023-05-15T01:04:14;11.80;99.90
4461;DHT22;2243;48.812;9.232;2023-05-15T01:06:45;11.90;99.90
4461;DHT22;2243;48.812;9.232;2023-05-15T01:09:18;12.00;99.90
4461;DHT22;2243;48.812;9.232;2023-05-15T01:11:53;12.00;99.90
4461;DHT22;2243;48.812;9.232;2023-05-15T01:14:24;12.00;99.90
4461;DHT22;2243;48.812;9.232;2023-05-15T01:16:55;12.00;99.90
4461;DHT22;2243;48.812;9.232;2023-05-15T01:19:26;12.00;99.90
4461;DHT22;2243;48.812;9.232;2023-05-15T01:27:58;12.10;99.90
4461;DHT22;2243;48.812;9.232;2023-05-15T01:30:35;12.10;99.90
4461;DHT22;2243;48.812;9.232;2023-05-15T01:33:28;12.10;99.90
4461;DHT22;2243;48.812;9.232;2023-05-15T01:36:13;12.20;99.90
4461;DHT22;2243;48.812;9.232;2023-05-15T01:38:51;12.20;99.90
4461;DHT22;2243;48.812;9.232;2023-05-15T01:44:25;12.10;99.90
4461;DHT22;2243;48.812;9.232;2023-05-15T01:47:05;12.00;99.90
4461;DHT22;2243;48.812;9.232;2023-05-15T01:49:39;12.00;99.90
4461;DHT22;2243;48.812;9.232;2023-05-15T01:52:22;11.90;99.90
4461;DHT22;2243;48.812;9.232;2023-05-15T01:54:56;11.90;99.90
4461;DHT22;2243;48.812;9.232;2023-05-15T01:57:28;11.90;99.90
4461;DHT22;2243;48.812;9.232;2023-05-15T02:00:01;11.90;99.90
4461;DHT22;2243;48.812;9.232;2023-05-15T02:02:33;11.90;99.90
4461;DHT22;2243;48.812;9.232;2023-05-15T02:05:05;11.90;99.90
4461;DHT22;2243;48.812;9.232;2023-05-15T02:07:37;12.00;99.90
4461;DHT22;2243;48.812;9.232;2023-05-15T02:10:10;12.10;99.90
4461;DHT22;2243;48.812;9.232;2023-05-15T02:12:42;12.10;99.90
4461;DHT22;2243;48.812;9.232;2023-05-15T02:15:16;12.20;99.90
4461;DHT22;2243;48.812;9.232;2023-05-15T02:17:48;12.20;99.90
4461;DHT22;2243;48.812;9.232;2023-05-15T02:20:19;12.10;99.90
4461;DHT22;2243;48.812;9.232;2023-05-15T02:22:50;11.90;99.90
4461;DHT22;2243;48.812;9.232;2023-05-15T02:25:33;11.90;99.90
4461;DHT22;2243;48.812;9.232;2023-05-15T02:28:23;11.90;99.90
4461;DHT22;2243;48.812;9.232;2023-05-15T02:31:05;11.90;99.90
4461;DHT22;2243;48.812;9.232;2023-05-15T02:34:07;11.80;99.90
4461;DHT22;2243;48.812;9.232;2023-05-15T02:36:40;11.70;99.90
4461;DHT22;2243;48.812;9.232;2023-05-15T02:39:14;11.70;99.90
4461;DHT22;2243;48.812;9.232;2023-05-15T02:41:47;11.70;99.90
4461;DHT22;2243;48.812;9.232;2023-05-15T02:44:19;11.80;99.90
4461;DHT22;2243;48.812;9.232;2023-05-15T02:46:51;11.80;99.90
4461;DHT22;2243;48.812;9.232;2023-05-15T02:49:23;11.90;99.90
4461;DHT22;2243;48.812;9.232;2023-05-15T02:51:54;11.90;99.90
4461;DHT22;2243;48.812;9.232;2023-05-15T02:54:25;11.90;99.90
4461;DHT22;2243;48.812;9.232;2023-05-15T02:56:56;11.90;99.90
4461;DHT22;2243;48.812;9.232;2023-05-15T02:59:27;11.90;99.90
4461;DHT22;2243;48.812;9.232;2023-05-15T03:01:58;11.90;99.90
4461;DHT22;2243;48.812;9.232;2023-05-15T03:04:29;11.90;99.90
4461;DHT22;2243;48.812;9.232;2023-05-15T03:07:00;11.90;99.90
4461;DHT22;2243;48.812;9.232;2023-05-15T03:09:31;11.80;99.90
4461;DHT22;2243;48.812;9.232;2023-05-15T03:12:03;11.80;99.90
4461;DHT22;2243;48.812;9.232;2023-05-15T03:14:33;11.90;99.90
4461;DHT22;2243;48.812;9.232;2023-05-15T03:17:04;12.00;99.90
4461;DHT22;2243;48.812;9.232;2023-05-15T03:19:36;12.00;99.90
4461;DHT22;2243;48.812;9.232;2023-05-15T03:22:07;11.90;99.90
4461;DHT22;2243;48.812;9.232;2023-05-15T03:24:38;11.90;99.90
4461;DHT22;2243;48.812;9.232;2023-05-15T03:27:09;11.90;99.90
4461;DHT22;2243;48.812;9.232;2023-05-15T03:29:41;11.90;99.90
4461;DHT22;2243;48.812;9.232;2023-05-15T03:32:12;12.00;99.90
4461;DHT22;2243;48.812;9.232;2023-05-15T03:34:43;12.10;99.90
4461;DHT22;2243;48.812;9.232;2023-05-15T03:37:14;12.10;99.90
4461;DHT22;2243;48.812;9.232;2023-05-15T03:39:45;12.00;99.90
4461;DHT22;2243;48.812;9.232;2023-05-15T03:42:16;12.00;99.90
4461;DHT22;2243;48.812;9.232;2023-05-15T03:44:52;12.00;99.90
4461;DHT22;2243;48.812;9.232;2023-05-15T03:47:24;12.00;99.90
4461;DHT22;2243;48.812;9.232;2023-05-15T03:49:55;12.00;99.90
4461;DHT22;2243;48.812;9.232;2023-05-15T03:52:26;12.00;99.90
4461;DHT22;2243;48.812;9.232;2023-05-15T03:54:57;11.90;99.90
4461;DHT22;2243;48.812;9.232;2023-05-15T03:57:28;12.00;99.90
4461;DHT22;2243;48.812;9.232;2023-05-15T04:00:00;12.00;99.90
4461;DHT22;2243;48.812;9.232;2023-05-15T04:02:33;12.00;99.90
4461;DHT22;2243;48.812;9.232;2023-05-15T04:05:05;12.00;99.90
4461;DHT22;2243;48.812;9.232;2023-05-15T04:07:36;12.00;99.90
4461;DHT22;2243;48.812;9.232;2023-05-15T04:10:08;12.00;99.90
4461;DHT22;2243;48.812;9.232;2023-05-15T04:12:39;12.00;99.90
4461;DHT22;2243;48.812;9.232;2023-05-15T04:15:18;12.10;99.90
4461;DHT22;2243;48.812;9.232;2023-05-15T04:17:51;12.10;99.90
4461;DHT22;2243;48.812;9.232;2023-05-15T04:20:23;12.10;99.90
4461;DHT22;2243;48.812;9.232;2023-05-15T04:22:54;12.20;99.90
4461;DHT22;2243;48.812;9.232;2023-05-15T04:25:25;12.20;99.90
4461;DHT22;2243;48.812;9.232;2023-05-15T04:27:57;12.20;99.90
4461;DHT22;2243;48.812;9.232;2023-05-15T04:30:28;12.30;99.90
4461;DHT22;2243;48.812;9.232;2023-05-15T04:32:59;12.30;99.90
4461;DHT22;2243;48.812;9.232;2023-05-15T04:35:30;12.30;99.90
4461;DHT22;2243;48.812;9.232;2023-05-15T04:38:01;12.40;99.90
4461;DHT22;2243;48.812;9.232;2023-05-15T04:40:32;12.40;99.90
4461;DHT22;2243;48.812;9.232;2023-05-15T04:43:03;12.50;99.90
4461;DHT22;2243;48.812;9.232;2023-05-15T04:45:34;12.60;99.90
4461;DHT22;2243;48.812;9.232;2023-05-15T04:48:05;12.60;99.90
4461;DHT22;2243;48.812;9.232;2023-05-15T04:50:36;12.60;99.90
4461;DHT22;2243;48.812;9.232;2023-05-15T04:53:07;12.70;99.90
4461;DHT22;2243;48.812;9.232;2023-05-15T04:55:38;12.80;99.90
4461;DHT22;2243;48.812;9.232;2023-05-15T04:58:09;12.90;99.90
4461;DHT22;2243;48.812;9.232;2023-05-15T05:00:40;12.90;99.90
4461;DHT22;2243;48.812;9.232;2023-05-15T05:03:11;13.10;99.90
4461;DHT22;2243;48.812;9.232;2023-05-15T05:05:42;13.10;99.90
4461;DHT22;2243;48.812;9.232;2023-05-15T05:08:13;13.20;99.90
4461;DHT22;2243;48.812;9.232;2023-05-15T05:10:44;13.30;99.90
4461;DHT22;2243;48.812;9.232;2023-05-15T05:13:15;13.30;99.90
4461;DHT22;2243;48.812;9.232;2023-05-15T05:15:46;13.40;99.90
4461;DHT22;2243;48.812;9.232;2023-05-15T05:18:17;13.40;99.90
4461;DHT22;2243;48.812;9.232;2023-05-15T05:20:48;13.40;99.90
4461;DHT22;2243;48.812;9.232;2023-05-15T05:23:20;13.50;99.90
4461;DHT22;2243;48.812;9.232;2023-05-15T05:25:51;13.60;99.90
4461;DHT22;2243;48.812;9.232;2023-05-15T05:28:22;13.60;99.90
4461;DHT22;2243;48.812;9.232;2023-05-15T05:30:53;13.80;99.90
4461;DHT22;2243;48.812;9.232;2023-05-15T05:33:30;13.80;99.90
4461;DHT22;2243;48.812;9.232;2023-05-15T05:36:08;13.90;99.90
4461;DHT22;2243;48.812;9.232;2023-05-15T05:38:39;13.90;99.90
4461;DHT22;2243;48.812;9.232;2023-05-15T05:41:10;13.90;99.90
4461;DHT22;2243;48.812;9.232;2023-05-15T05:43:41;14.00;99.90
4461;DHT22;2243;48.812;9.232;2023-05-15T05:46:12;14.00;99.90
4461;DHT22;2243;48.812;9.232;2023-05-15T05:48:43;14.10;99.90
4461;DHT22;2243;48.812;9.232;2023-05-15T05:51:14;14.10;99.90
4461;DHT22;2243;48.812;9.232;2023-05-15T05:53:45;14.10;99.90
4461;DHT22;2243;48.812;9.232;2023-05-15T05:56:16;14.20;99.90
4461;DHT22;2243;48.812;9.232;2023-05-15T05:58:47;14.30;99.90
4461;DHT22;2243;48.812;9.232;2023-05-15T06:01:18;14.20;99.90
4461;DHT22;2243;48.812;9.232;2023-05-15T06:03:49;14.30;99.90
4461;DHT22;2243;48.812;9.232;2023-05-15T06:06:20;14.30;99.90
4461;DHT22;2243;48.812;9.232;2023-05-15T06:08:51;14.40;99.90
4461;DHT22;2243;48.812;9.232;2023-05-15T06:11:25;14.50;99.90
4461;DHT22;2243;48.812;9.232;2023-05-15T06:13:56;14.40;99.90
4461;DHT22;2243;48.812;9.232;2023-05-15T06:16:27;14.40;99.90
4461;DHT22;2243;48.812;9.232;2023-05-15T06:18:58;14.40;99.90
4461;DHT22;2243;48.812;9.232;2023-05-15T06:21:30;14.50;99.90
4461;DHT22;2243;48.812;9.232;2023-05-15T06:24:01;14.60;99.90
4461;DHT22;2243;48.812;9.232;2023-05-15T06:26:32;14.60;99.90
4461;DHT22;2243;48.812;9.232;2023-05-15T06:29:03;14.60;99.90
4461;DHT22;2243;48.812;9.232;2023-05-15T06:31:34;14.70;99.90
4461;DHT22;2243;48.812;9.232;2023-05-15T06:34:05;14.80;99.90
4461;DHT22;2243;48.812;9.232;2023-05-15T06:36:36;14.90;99.90
4461;DHT22;2243;48.812;9.232;2023-05-15T06:39:07;14.90;99.90
4461;DHT22;2243;48.812;9.232;2023-05-15T06:41:41;15.00;99.90
4461;DHT22;2243;48.812;9.232;2023-05-15T06:44:13;15.00;99.90
4461;DHT22;2243;48.812;9.232;2023-05-15T06:46:44;15.10;99.90
4461;DHT22;2243;48.812;9.232;2023-05-15T06:49:15;15.10;99.90
4461;DHT22;2243;48.812;9.232;2023-05-15T06:51:46;15.20;99.90
4461;DHT22;2243;48.812;9.232;2023-05-15T06:54:17;15.20;99.90
4461;DHT22;2243;48.812;9.232;2023-05-15T06:56:48;15.20;99.90
4461;DHT22;2243;48.812;9.232;2023-05-15T06:59:19;15.30;99.90
4461;DHT22;2243;48.812;9.232;2023-05-15T07:01:50;15.40;99.90
4461;DHT22;2243;48.812;9.232;2023-05-15T07:04:21;15.50;99.90
4461;DHT22;2243;48.812;9.232;2023-05-15T07:06:53;15.50;99.90
4461;DHT22;2243;48.812;9.232;2023-05-15T07:09:24;15.60;99.90
4461;DHT22;2243;48.812;9.232;2023-05-15T07:11:55;15.60;99.90
4461;DHT22;2243;48.812;9.232;2023-05-15T07:14:26;15.80;99.90
4461;DHT22;2243;48.812;9.232;2023-05-15T07:16:57;15.80;99.90
4461;DHT22;2243;48.812;9.232;2023-05-15T07:19:28;15.90;99.90
4461;DHT22;2243;48.812;9.232;2023-05-15T07:22:00;15.90;99.90
4461;DHT22;2243;48.812;9.232;2023-05-15T07:24:33;15.90;99.90
4461;DHT22;2243;48.812;9.232;2023-05-15T07:27:04;16.00;99.90
4461;DHT22;2243;48.812;9.232;2023-05-15T07:29:35;16.10;99.90
4461;DHT22;2243;48.812;9.232;2023-05-15T07:32:06;16.00;99.90
4461;DHT22;2243;48.812;9.232;2023-05-15T07:34:40;16.00;99.90
4461;DHT22;2243;48.812;9.232;2023-05-15T07:37:14;16.00;99.90
4461;DHT22;2243;48.812;9.232;2023-05-15T07:39:46;16.00;99.90
4461;DHT22;2243;48.812;9.232;2023-05-15T07:42:17;16.00;99.90
4461;DHT22;2243;48.812;9.232;2023-05-15T07:44:48;16.10;99.90
4461;DHT22;2243;48.812;9.232;2023-05-15T07:47:19;16.20;99.90
4461;DHT22;2243;48.812;9.232;2023-05-15T07:49:50;16.20;99.90
4461;DHT22;2243;48.812;9.232;2023-05-15T07:52:21;16.20;99.90
4461;DHT22;2243;48.812;9.232;2023-05-15T07:54:52;16.30;99.90
4461;DHT22;2243;48.812;9.232;2023-05-15T07:57:23;16.40;99.90
4461;DHT22;2243;48.812;9.232;2023-05-15T07:59:56;16.40;99.90
4461;DHT22;2243;48.812;9.232;2023-05-15T08:02:27;16.50;99.90
4461;DHT22;2243;48.812;9.232;2023-05-15T08:04:58;16.50;99.90
4461;DHT22;2243;48.812;9.232;2023-05-15T08:07:30;16.50;99.90
4461;DHT22;2243;48.812;9.232;2023-05-15T08:10:03;16.50;99.90
4461;DHT22;2243;48.812;9.232;2023-05-15T08:12:36;16.50;99.90
4461;DHT22;2243;48.812;9.232;2023-05-15T08:15:07;16.50;99.90
4461;DHT22;2243;48.812;9.232;2023-05-15T08:17:39;16.60;99.90
4461;DHT22;2243;48.812;9.232;2023-05-15T08:20:11;16.70;99.90
4461;DHT22;2243;48.812;9.232;2023-05-15T08:22:42;16.70;99.90
4461;DHT22;2243;48.812;9.232;2023-05-15T08:25:13;16.80;99.90
4461;DHT22;2243;48.812;9.232;2023-05-15T08:27:44;16.80;99.90
4461;DHT22;2243;48.812;9.232;2023-05-15T08:30:15;16.80;99.90
4461;DHT22;2243;48.812;9.232;2023-05-15T08:32:46;16.90;99.90
4461;DHT22;2243;48.812;9.232;2023-05-15T08:35:18;17.00;99.90
4461;DHT22;2243;48.812;9.232;2023-05-15T08:37:49;17.10;99.90
4461;DHT22;2243;48.812;9.232;2023-05-15T08:40:20;17.10;99.90
4461;DHT22;2243;48.812;9.232;2023-05-15T08:43:11;17.10;99.90
4461;DHT22;2243;48.812;9.232;2023-05-15T08:45:44;17.20;99.90
4461;DHT22;2243;48.812;9.232;2023-05-15T08:48:17;17.30;99.90
4461;DHT22;2243;48.812;9.232;2023-05-15T08:50:50;17.50;99.90
4461;DHT22;2243;48.812;9.232;2023-05-15T08:53:22;17.60;99.90
4461;DHT22;2243;48.812;9.232;2023-05-15T08:55:53;17.70;99.90
4461;DHT22;2243;48.812;9.232;2023-05-15T08:58:25;17.70;99.90
4461;DHT22;2243;48.812;9.232;2023-05-15T09:00:58;17.70;99.90
4461;DHT22;2243;48.812;9.232;2023-05-15T09:03:29;17.70;99.90
4461;DHT22;2243;48.812;9.232;2023-05-15T09:06:01;17.80;99.90
4461;DHT22;2243;48.812;9.232;2023-05-15T09:08:34;17.80;99.90
4461;DHT22;2243;48.812;9.232;2023-05-15T09:11:06;17.80;99.90
4461;DHT22;2243;48.812;9.232;2023-05-15T09:13:37;18.00;99.90
4461;DHT22;2243;48.812;9.232;2023-05-15T09:16:08;18.10;99.90
4461;DHT22;2243;48.812;9.232;2023-05-15T09:18:39;18.20;99.90
4461;DHT22;2243;48.812;9.232;2023-05-15T09:21:25;18.30;99.90
4461;DHT22;2243;48.812;9.232;2023-05-15T09:27:00;18.30;99.90
4461;DHT22;2243;48.812;9.232;2023-05-15T09:29:34;18.30;99.90
4461;DHT22;2243;48.812;9.232;2023-05-15T09:32:08;18.10;99.90
4461;DHT22;2243;48.812;9.232;2023-05-15T09:34:42;18.10;99.90
4461;DHT22;2243;48.812;9.232;2023-05-15T09:37:28;17.90;99.90
4461;DHT22;2243;48.812;9.232;2023-05-15T09:40:10;17.70;99.90
4461;DHT22;2243;48.812;9.232;2023-05-15T09:42:41;17.60;99.90
4461;DHT22;2243;48.812;9.232;2023-05-15T09:45:18;17.50;99.90
4461;DHT22;2243;48.812;9.232;2023-05-15T09:47:49;17.50;99.90
4461;DHT22;2243;48.812;9.232;2023-05-15T09:50:22;17.30;99.90
4461;DHT22;2243;48.812;9.232;2023-05-15T09:52:58;17.30;99.90
4461;DHT22;2243;48.812;9.232;2023-05-15T09:55:35;17.20;99.90
4461;DHT22;2243;48.812;9.232;2023-05-15T09:58:11;17.30;99.90
4461;DHT22;2243;48.812;9.232;2023-05-15T10:00:44;17.40;99.90
4461;DHT22;2243;48.812;9.232;2023-05-15T10:03:18;17.50;99.90
4461;DHT22;2243;48.812;9.232;2023-05-15T10:05:58;17.70;99.90
4461;DHT22;2243;48.812;9.232;2023-05-15T10:08:30;17.80;99.90
4461;DHT22;2243;48.812;9.232;2023-05-15T10:11:02;18.00;99.90
4461;DHT22;2243;48.812;9.232;2023-05-15T10:13:34;18.10;99.90
4461;DHT22;2243;48.812;9.232;2023-05-15T10:16:06;18.20;99.90
4461;DHT22;2243;48.812;9.232;2023-05-15T10:18:39;18.20;99.90
4461;DHT22;2243;48.812;9.232;2023-05-15T10:21:11;18.20;99.90
4461;DHT22;2243;48.812;9.232;2023-05-15T10:23:44;18.30;99.90
4461;DHT22;2243;48.812;9.232;2023-05-15T10:26:23;18.30;99.90
4461;DHT22;2243;48.812;9.232;2023-05-15T10:29:00;18.30;99.90
4461;DHT22;2243;48.812;9.232;2023-05-15T10:31:33;18.30;99.90
4461;DHT22;2243;48.812;9.232;2023-05-15T10:34:06;18.40;99.90
4461;DHT22;2243;48.812;9.232;2023-05-15T10:36:38;18.50;99.90
4461;DHT22;2243;48.812;9.232;2023-05-15T10:39:09;18.70;99.90
4461;DHT22;2243;48.812;9.232;2023-05-15T10:41:41;18.70;99.90
4461;DHT22;2243;48.812;9.232;2023-05-15T10:44:13;18.70;99.90
4461;DHT22;2243;48.812;9.232;2023-05-15T10:46:46;18.90;99.50
4461;DHT22;2243;48.812;9.232;2023-05-15T10:49:17;19.00;98.30
4461;DHT22;2243;48.812;9.232;2023-05-15T10:51:48;18.90;96.80
4461;DHT22;2243;48.812;9.232;2023-05-15T10:54:21;18.80;97.20
4461;DHT22;2243;48.812;9.232;2023-05-15T10:56:54;18.90;97.50
4461;DHT22;2243;48.812;9.232;2023-05-15T10:59:32;19.00;99.00
4461;DHT22;2243;48.812;9.232;2023-05-15T11:02:24;19.30;98.70
4461;DHT22;2243;48.812;9.232;2023-05-15T11:05:01;19.60;97.20
4461;DHT22;2243;48.812;9.232;2023-05-15T11:07:33;19.70;96.80
4461;DHT22;2243;48.812;9.232;2023-05-15T11:12:59;20.10;95.50
4461;DHT22;2243;48.812;9.232;2023-05-15T11:15:45;20.50;95.90
4461;DHT22;2243;48.812;9.232;2023-05-15T11:18:18;20.50;95.60
4461;DHT22;2243;48.812;9.232;2023-05-15T11:23:24;20.20;96.90
4461;DHT22;2243;48.812;9.232;2023-05-15T11:25:55;20.10;96.60
4461;DHT22;2243;48.812;9.232;2023-05-15T11:28:27;20.50;96.60
4461;DHT22;2243;48.812;9.232;2023-05-15T11:31:05;21.10;96.30
4461;DHT22;2243;48.812;9.232;2023-05-15T11:33:37;21.60;95.70
4461;DHT22;2243;48.812;9.232;2023-05-15T11:36:10;22.20;94.60
4461;DHT22;2243;48.812;9.232;2023-05-15T11:38:49;22.60;94.60
4461;DHT22;2243;48.812;9.232;2023-05-15T11:41:20;23.90;91.10
4461;DHT22;2243;48.812;9.232;2023-05-15T11:43:54;23.70;90.70
4461;DHT22;2243;48.812;9.232;2023-05-15T11:46:26;23.60;89.80
4461;DHT22;2243;48.812;9.232;2023-05-15T11:48:57;23.40;90.10
4461;DHT22;2243;48.812;9.232;2023-05-15T11:51:30;23.50;90.00
4461;DHT22;2243;48.812;9.232;2023-05-15T11:54:03;23.20;89.70
4461;DHT22;2243;48.812;9.232;2023-05-15T11:56:42;22.10;91.20
4461;DHT22;2243;48.812;9.232;2023-05-15T11:59:16;21.60;92.20
4461;DHT22;2243;48.812;9.232;2023-05-15T12:01:47;21.80;94.40
4461;DHT22;2243;48.812;9.232;2023-05-15T12:04:18;21.90;91.60
4461;DHT22;2243;48.812;9.232;2023-05-15T12:06:50;22.30;90.20
4461;DHT22;2243;48.812;9.232;2023-05-15T12:09:21;22.40;91.60
4461;DHT22;2243;48.812;9.232;2023-05-15T12:11:56;22.60;90.30
4461;DHT22;2243;48.812;9.232;2023-05-15T12:14:28;22.30;90.50
4461;DHT22;2243;48.812;9.232;2023-05-15T12:17:00;21.80;91.30
4461;DHT22;2243;48.812;9.232;2023-05-15T12:19:35;21.70;90.70
4461;DHT22;2243;48.812;9.232;2023-05-15T12:22:06;21.70;90.50
4461;DHT22;2243;48.812;9.232;2023-05-15T12:24:38;21.90;91.20
4461;DHT22;2243;48.812;9.232;2023-05-15T12:27:09;22.30;91.20
4461;DHT22;2243;48.812;9.232;2023-05-15T12:29:41;22.90;90.50
4461;DHT22;2243;48.812;9.232;2023-05-15T12:32:12;23.20;89.80
4461;DHT22;2243;48.812;9.232;2023-05-15T12:34:44;23.40;90.00
4461;DHT22;2243;48.812;9.232;2023-05-15T12:37:18;23.10;90.30
4461;DHT22;2243;48.812;9.232;2023-05-15T12:39:55;23.00;89.50
4461;DHT22;2243;48.812;9.232;2023-05-15T12:42:29;22.70;89.60
4461;DHT22;2243;48.812;9.232;2023-05-15T12:45:00;22.40;90.30
4461;DHT22;2243;48.812;9.232;2023-05-15T12:47:31;22.00;92.40
4461;DHT22;2243;48.812;9.232;2023-05-15T12:50:13;21.80;94.80
4461;DHT22;2243;48.812;9.232;2023-05-15T12:55:27;21.30;96.50
4461;DHT22;2243;48.812;9.232;2023-05-15T12:58:08;21.20;95.60
4461;DHT22;2243;48.812;9.232;2023-05-15T13:00:41;20.90;94.70
4461;DHT22;2243;48.812;9.232;2023-05-15T13:03:13;21.00;93.80
4461;DHT22;2243;48.812;9.232;2023-05-15T13:05:45;21.30;92.50
4461;DHT22;2243;48.812;9.232;2023-05-15T13:08:17;21.40;91.80
4461;DHT22;2243;48.812;9.232;2023-05-15T13:10:55;21.50;91.00
4461;DHT22;2243;48.812;9.232;2023-05-15T13:13:46;21.50;91.20
4461;DHT22;2243;48.812;9.232;2023-05-15T13:16:24;21.30;91.40
4461;DHT22;2243;48.812;9.232;2023-05-15T13:18:56;21.40;91.70
4461;DHT22;2243;48.812;9.232;2023-05-15T13:21:30;21.20;92.20
4461;DHT22;2243;48.812;9.232;2023-05-15T13:24:01;21.10;91.70
4461;DHT22;2243;48.812;9.232;2023-05-15T13:26:32;21.20;92.10
4461;DHT22;2243;48.812;9.232;2023-05-15T13:29:03;21.10;92.60
4461;DHT22;2243;48.812;9.232;2023-05-15T13:31:34;21.10;92.40
4461;DHT22;2243;48.812;9.232;2023-05-15T13:34:05;21.10;92.30
4461;DHT22;2243;48.812;9.232;2023-05-15T13:36:36;21.20;91.60
4461;DHT22;2243;48.812;9.232;2023-05-15T13:39:07;21.10;91.90
4461;DHT22;2243;48.812;9.232;2023-05-15T13:41:38;21.20;91.70
4461;DHT22;2243;48.812;9.232;2023-05-15T13:44:09;21.00;92.00
4461;DHT22;2243;48.812;9.232;2023-05-15T13:46:40;20.80;91.50
4461;DHT22;2243;48.812;9.232;2023-05-15T13:49:11;20.90;91.80
4461;DHT22;2243;48.812;9.232;2023-05-15T13:51:42;20.90;91.30
4461;DHT22;2243;48.812;9.232;2023-05-15T13:54:13;20.80;91.80
4461;DHT22;2243;48.812;9.232;2023-05-15T13:56:45;20.80;91.60
4461;DHT22;2243;48.812;9.232;2023-05-15T13:59:16;20.80;91.50
4461;DHT22;2243;48.812;9.232;2023-05-15T14:01:47;20.80;92.30
4461;DHT22;2243;48.812;9.232;2023-05-15T14:04:17;20.90;91.50
4461;DHT22;2243;48.812;9.232;2023-05-15T14:06:50;21.10;90.90
4461;DHT22;2243;48.812;9.232;2023-05-15T14:09:22;21.40;90.80
4461;DHT22;2243;48.812;9.232;2023-05-15T14:11:53;21.50;89.20
4461;DHT22;2243;48.812;9.232;2023-05-15T14:14:24;21.60;89.60
4461;DHT22;2243;48.812;9.232;2023-05-15T14:16:55;21.60;89.90
4461;DHT22;2243;48.812;9.232;2023-05-15T14:19:26;21.30;90.30
4461;DHT22;2243;48.812;9.232;2023-05-15T14:21:57;21.00;90.60
4461;DHT22;2243;48.812;9.232;2023-05-15T14:24:28;20.70;91.30
4461;DHT22;2243;48.812;9.232;2023-05-15T14:26:59;20.60;91.90
4461;DHT22;2243;48.812;9.232;2023-05-15T14:29:30;20.50;92.40
4461;DHT22;2243;48.812;9.232;2023-05-15T14:32:01;20.40;92.70
4461;DHT22;2243;48.812;9.232;2023-05-15T14:34:32;20.30;92.80
4461;DHT22;2243;48.812;9.232;2023-05-15T14:37:03;20.20;93.20
4461;DHT22;2243;48.812;9.232;2023-05-15T14:39:34;20.10;93.80
4461;DHT22;2243;48.812;9.232;2023-05-15T14:42:06;20.10;94.20
4461;DHT22;2243;48.812;9.232;2023-05-15T14:44:37;20.00;94.30
4461;DHT22;2243;48.812;9.232;2023-05-15T14:47:09;20.00;94.60
4461;DHT22;2243;48.812;9.232;2023-05-15T14:49:42;20.00;94.00
4461;DHT22;2243;48.812;9.232;2023-05-15T14:52:13;20.00;94.20
4461;DHT22;2243;48.812;9.232;2023-05-15T14:54:44;20.10;95.10
4461;DHT22;2243;48.812;9.232;2023-05-15T14:57:26;20.40;94.20
4461;DHT22;2243;48.812;9.232;2023-05-15T14:59:57;20.80;94.30
4461;DHT22;2243;48.812;9.232;2023-05-15T15:02:28;21.30;92.30
4461;DHT22;2243;48.812;9.232;2023-05-15T15:04:59;21.20;91.40
4461;DHT22;2243;48.812;9.232;2023-05-15T15:07:30;20.90;92.20
4461;DHT22;2243;48.812;9.232;2023-05-15T15:10:36;20.80;92.40
4461;DHT22;2243;48.812;9.232;2023-05-15T15:13:08;20.50;91.80
4461;DHT22;2243;48.812;9.232;2023-05-15T15:15:41;20.50;91.20
4461;DHT22;2243;48.812;9.232;2023-05-15T15:18:12;20.10;92.10
4461;DHT22;2243;48.812;9.232;2023-05-15T15:20:43;19.90;92.50
4461;DHT22;2243;48.812;9.232;2023-05-15T15:23:14;19.70;93.30
4461;DHT22;2243;48.812;9.232;2023-05-15T15:25:45;19.40;94.40
4461;DHT22;2243;48.812;9.232;2023-05-15T15:28:16;19.20;95.10
4461;DHT22;2243;48.812;9.232;2023-05-15T15:30:47;18.90;96.50
4461;DHT22;2243;48.812;9.232;2023-05-15T15:33:18;18.70;97.50
4461;DHT22;2243;48.812;9.232;2023-05-15T15:35:49;18.60;99.20
4461;DHT22;2243;48.812;9.232;2023-05-15T15:38:20;18.50;99.20
4461;DHT22;2243;48.812;9.232;2023-05-15T15:40:51;18.60;99.90
4461;DHT22;2243;48.812;9.232;2023-05-15T15:43:22;18.60;99.30
4461;DHT22;2243;48.812;9.232;2023-05-15T15:45:53;18.70;99.20
4461;DHT22;2243;48.812;9.232;2023-05-15T15:48:24;18.70;99.50
4461;DHT22;2243;48.812;9.232;2023-05-15T15:50:55;18.60;99.90
4461;DHT22;2243;48.812;9.232;2023-05-15T15:53:26;18.60;99.90
4461;DHT22;2243;48.812;9.232;2023-05-15T15:55:57;18.40;99.90
4461;DHT22;2243;48.812;9.232;2023-05-15T15:58:29;18.20;99.90
4461;DHT22;2243;48.812;9.232;2023-05-15T16:01:01;18.00;99.90
4461;DHT22;2243;48.812;9.232;2023-05-15T16:03:32;17.90;99.90
4461;DHT22;2243;48.812;9.232;2023-05-15T16:06:04;17.70;99.90
4461;DHT22;2243;48.812;9.232;2023-05-15T16:08:35;17.60;99.90
4461;DHT22;2243;48.812;9.232;2023-05-15T16:11:06;17.60;99.90
4461;DHT22;2243;48.812;9.232;2023-05-15T16:13:37;17.70;99.90
4461;DHT22;2243;48.812;9.232;2023-05-15T16:16:10;17.80;99.90
4461;DHT22;2243;48.812;9.232;2023-05-15T16:18:41;17.90;99.90
4461;DHT22;2243;48.812;9.232;2023-05-15T16:21:12;17.80;99.70
4461;DHT22;2243;48.812;9.232;2023-05-15T16:23:44;17.50;99.90
4461;DHT22;2243;48.812;9.232;2023-05-15T16:26:15;17.40;99.90
4461;DHT22;2243;48.812;9.232;2023-05-15T16:28:49;17.30;99.90
4461;DHT22;2243;48.812;9.232;2023-05-15T16:31:20;17.30;99.20
4461;DHT22;2243;48.812;9.232;2023-05-15T16:33:51;17.20;99.90
4461;DHT22;2243;48.812;9.232;2023-05-15T16:36:22;17.20;99.90
4461;DHT22;2243;48.812;9.232;2023-05-15T16:38:53;17.10;99.90
4461;DHT22;2243;48.812;9.232;2023-05-15T16:41:24;17.00;99.90
4461;DHT22;2243;48.812;9.232;2023-05-15T16:43:55;16.90;99.90
4461;DHT22;2243;48.812;9.232;2023-05-15T16:46:26;16.90;99.90
4461;DHT22;2243;48.812;9.232;2023-05-15T16:48:57;16.90;99.90
4461;DHT22;2243;48.812;9.232;2023-05-15T16:51:28;16.90;99.90
4461;DHT22;2243;48.812;9.232;2023-05-15T16:53:59;16.90;99.90
4461;DHT22;2243;48.812;9.232;2023-05-15T16:56:30;17.00;99.70